sensor_id;sensor_type;location;lat;lon;timestamp;P1;durP1;ratioP1;P2;durP2;ratioP2
80313;SDS011;69628;47.516;18.828;2023-12-14T00:00:52;6.75;;;3.72;;
80313;SDS011;69628;47.516;18.828;2023-12-14T00:01:53;10.07;;;3.95;;
80313;SDS011;69628;47.516;18.828;2023-12-14T00:02:53;4.65;;;3.30;;
80313;SDS011;69628;47.516;18.828;2023-12-14T00:03:53;7.13;;;3.65;;
80313;SDS011;69628;47.516;18.828;2023-12-14T00:04:54;8.88;;;4.20;;
80313;SDS011;69628;47.516;18.828;2023-12-14T00:05:54;8.55;;;4.00;;
80313;SDS011;69628;47.516;18.828;2023-12-14T00:06:54;9.55;;;3.67;;
80313;SDS011;69628;47.516;18.828;2023-12-14T00:07:55;6.13;;;3.83;;
80313;SDS011;69628;47.516;18.828;2023-12-14T00:08:55;7.05;;;4.63;;
80313;SDS011;69628;47.516;18.828;2023-12-14T00:09:55;7.25;;;4.47;;
80313;SDS011;69628;47.516;18.828;2023-12-14T00:10:56;6.30;;;4.18;;
80313;SDS011;69628;47.516;18.828;2023-12-14T00:11:56;8.88;;;5.35;;
80313;SDS011;69628;47.516;18.828;2023-12-14T00:12:57;8.55;;;3.45;;
80313;SDS011;69628;47.516;18.828;2023-12-14T00:13:57;11.73;;;4.97;;
80313;SDS011;69628;47.516;18.828;2023-12-14T00:14:57;7.32;;;3.97;;
80313;SDS011;69628;47.516;18.828;2023-12-14T00:15:58;5.63;;;3.53;;
80313;SDS011;69628;47.516;18.828;2023-12-14T00:16:58;7.45;;;4.07;;
80313;SDS011;69628;47.516;18.828;2023-12-14T00:17:59;10.13;;;5.15;;
80313;SDS011;69628;47.516;18.828;2023-12-14T00:18:59;4.82;;;3.65;;
80313;SDS011;69628;47.516;18.828;2023-12-14T00:19:59;7.20;;;4.45;;
80313;SDS011;69628;47.516;18.828;2023-12-14T00:21:00;7.80;;;4.15;;
80313;SDS011;69628;47.516;18.828;2023-12-14T00:22:00;11.52;;;4.20;;
80313;SDS011;69628;47.516;18.828;2023-12-14T00:23:01;6.13;;;3.85;;
80313;SDS011;69628;47.516;18.828;2023-12-14T00:24:01;6.15;;;3.65;;
80313;SDS011;69628;47.516;18.828;2023-12-14T00:25:02;8.52;;;4.22;;
80313;SDS011;69628;47.516;18.828;2023-12-14T00:26:03;6.20;;;3.47;;
80313;SDS011;69628;47.516;18.828;2023-12-14T00:27:03;7.50;;;4.78;;
80313;SDS011;69628;47.516;18.828;2023-12-14T00:28:04;8.27;;;4.20;;
80313;SDS011;69628;47.516;18.828;2023-12-14T00:29:04;8.13;;;4.55;;
80313;SDS011;69628;47.516;18.828;2023-12-14T00:30:05;10.82;;;4.45;;
80313;SDS011;69628;47.516;18.828;2023-12-14T00:31:05;8.10;;;4.18;;
80313;SDS011;69628;47.516;18.828;2023-12-14T00:32:06;8.40;;;4.55;;
80313;SDS011;69628;47.516;18.828;2023-12-14T00:33:06;11.35;;;6.18;;
80313;SDS011;69628;47.516;18.828;2023-12-14T00:34:07;5.25;;;3.55;;
80313;SDS011;69628;47.516;18.828;2023-12-14T00:35:07;9.02;;;5.10;;
80313;SDS011;69628;47.516;18.828;2023-12-14T00:36:08;11.88;;;4.88;;
80313;SDS011;69628;47.516;18.828;2023-12-14T00:37:08;7.68;;;4.20;;
80313;SDS011;69628;47.516;18.828;2023-12-14T00:38:09;10.45;;;4.38;;
80313;SDS011;69628;47.516;18.828;2023-12-14T00:39:09;5.93;;;3.80;;
80313;SDS011;69628;47.516;18.828;2023-12-14T00:40:09;7.45;;;4.35;;
80313;SDS011;69628;47.516;18.828;2023-12-14T00:41:10;5.60;;;4.15;;
80313;SDS011;69628;47.516;18.828;2023-12-14T00:42:10;7.22;;;4.82;;
80313;SDS011;69628;47.516;18.828;2023-12-14T00:43:11;6.97;;;4.65;;
80313;SDS011;69628;47.516;18.828;2023-12-14T00:44:11;7.65;;;4.80;;
80313;SDS011;69628;47.516;18.828;2023-12-14T00:45:12;9.05;;;5.07;;
80313;SDS011;69628;47.516;18.828;2023-12-14T00:46:12;8.57;;;4.70;;
80313;SDS011;69628;47.516;18.828;2023-12-14T00:47:12;7.10;;;4.10;;
80313;SDS011;69628;47.516;18.828;2023-12-14T00:48:13;6.63;;;4.10;;
80313;SDS011;69628;47.516;18.828;2023-12-14T00:49:13;8.25;;;4.40;;
80313;SDS011;69628;47.516;18.828;2023-12-14T00:50:13;6.72;;;4.53;;
80313;SDS011;69628;47.516;18.828;2023-12-14T00:51:14;6.55;;;4.70;;
80313;SDS011;69628;47.516;18.828;2023-12-14T00:52:14;8.98;;;4.88;;
80313;SDS011;69628;47.516;18.828;2023-12-14T00:53:15;4.78;;;3.47;;
80313;SDS011;69628;47.516;18.828;2023-12-14T00:54:15;11.55;;;4.10;;
80313;SDS011;69628;47.516;18.828;2023-12-14T00:55:15;8.70;;;4.53;;
80313;SDS011;69628;47.516;18.828;2023-12-14T00:56:16;4.97;;;3.55;;
80313;SDS011;69628;47.516;18.828;2023-12-14T00:57:16;6.15;;;3.78;;
80313;SDS011;69628;47.516;18.828;2023-12-14T00:58:16;8.93;;;4.80;;
80313;SDS011;69628;47.516;18.828;2023-12-14T00:59:17;11.68;;;5.55;;
80313;SDS011;69628;47.516;18.828;2023-12-14T01:00:17;9.00;;;5.20;;
80313;SDS011;69628;47.516;18.828;2023-12-14T01:01:18;6.15;;;3.63;;
80313;SDS011;69628;47.516;18.828;2023-12-14T01:02:18;7.63;;;4.10;;
80313;SDS011;69628;47.516;18.828;2023-12-14T01:03:19;6.95;;;4.60;;
80313;SDS011;69628;47.516;18.828;2023-12-14T01:04:20;9.02;;;5.15;;
80313;SDS011;69628;47.516;18.828;2023-12-14T01:05:20;7.38;;;4.20;;
80313;SDS011;69628;47.516;18.828;2023-12-14T01:06:20;6.22;;;4.40;;
80313;SDS011;69628;47.516;18.828;2023-12-14T01:07:21;8.48;;;4.78;;
80313;SDS011;69628;47.516;18.828;2023-12-14T01:08:21;8.00;;;4.57;;
80313;SDS011;69628;47.516;18.828;2023-12-14T01:09:21;12.40;;;5.82;;
80313;SDS011;69628;47.516;18.828;2023-12-14T01:10:22;8.32;;;4.55;;
80313;SDS011;69628;47.516;18.828;2023-12-14T01:11:22;7.72;;;4.47;;
80313;SDS011;69628;47.516;18.828;2023-12-14T01:12:22;6.03;;;4.32;;
80313;SDS011;69628;47.516;18.828;2023-12-14T01:13:23;6.47;;;4.07;;
80313;SDS011;69628;47.516;18.828;2023-12-14T01:14:23;10.82;;;5.90;;
80313;SDS011;69628;47.516;18.828;2023-12-14T01:15:24;10.55;;;5.35;;
80313;SDS011;69628;47.516;18.828;2023-12-14T01:16:25;10.35;;;5.13;;
80313;SDS011;69628;47.516;18.828;2023-12-14T01:17:27;10.13;;;5.47;;
80313;SDS011;69628;47.516;18.828;2023-12-14T01:18:28;11.60;;;5.43;;
80313;SDS011;69628;47.516;18.828;2023-12-14T01:19:29;12.15;;;5.28;;
80313;SDS011;69628;47.516;18.828;2023-12-14T01:20:29;8.35;;;4.32;;
80313;SDS011;69628;47.516;18.828;2023-12-14T01:21:30;9.10;;;5.35;;
80313;SDS011;69628;47.516;18.828;2023-12-14T01:22:30;7.25;;;5.32;;
80313;SDS011;69628;47.516;18.828;2023-12-14T01:23:30;15.95;;;5.43;;
80313;SDS011;69628;47.516;18.828;2023-12-14T01:24:31;7.88;;;4.35;;
80313;SDS011;69628;47.516;18.828;2023-12-14T01:25:31;8.70;;;5.88;;
80313;SDS011;69628;47.516;18.828;2023-12-14T01:26:31;9.10;;;5.20;;
80313;SDS011;69628;47.516;18.828;2023-12-14T01:27:32;10.45;;;5.10;;
80313;SDS011;69628;47.516;18.828;2023-12-14T01:28:32;6.63;;;4.72;;
80313;SDS011;69628;47.516;18.828;2023-12-14T01:29:32;10.75;;;4.65;;
80313;SDS011;69628;47.516;18.828;2023-12-14T01:30:33;7.97;;;4.10;;
80313;SDS011;69628;47.516;18.828;2023-12-14T01:31:33;7.95;;;5.20;;
80313;SDS011;69628;47.516;18.828;2023-12-14T01:32:33;13.38;;;5.90;;
80313;SDS011;69628;47.516;18.828;2023-12-14T01:33:34;11.68;;;5.47;;
80313;SDS011;69628;47.516;18.828;2023-12-14T01:34:34;7.00;;;5.03;;
80313;SDS011;69628;47.516;18.828;2023-12-14T01:35:34;8.60;;;4.43;;
80313;SDS011;69628;47.516;18.828;2023-12-14T01:36:35;10.63;;;4.88;;
80313;SDS011;69628;47.516;18.828;2023-12-14T01:37:35;10.07;;;5.47;;
80313;SDS011;69628;47.516;18.828;2023-12-14T01:38:36;6.70;;;4.40;;
80313;SDS011;69628;47.516;18.828;2023-12-14T01:39:36;8.98;;;4.75;;
80313;SDS011;69628;47.516;18.828;2023-12-14T01:40:36;8.50;;;4.40;;
80313;SDS011;69628;47.516;18.828;2023-12-14T01:41:37;10.23;;;4.78;;
80313;SDS011;69628;47.516;18.828;2023-12-14T01:42:37;12.68;;;5.15;;
80313;SDS011;69628;47.516;18.828;2023-12-14T01:43:37;12.50;;;5.05;;
80313;SDS011;69628;47.516;18.828;2023-12-14T01:44:38;9.00;;;5.38;;
80313;SDS011;69628;47.516;18.828;2023-12-14T01:45:38;9.10;;;5.00;;
80313;SDS011;69628;47.516;18.828;2023-12-14T01:46:38;9.55;;;4.80;;
80313;SDS011;69628;47.516;18.828;2023-12-14T01:47:39;9.52;;;4.93;;
80313;SDS011;69628;47.516;18.828;2023-12-14T01:48:39;13.23;;;6.20;;
80313;SDS011;69628;47.516;18.828;2023-12-14T01:49:39;10.70;;;5.05;;
80313;SDS011;69628;47.516;18.828;2023-12-14T01:50:41;8.50;;;5.00;;
80313;SDS011;69628;47.516;18.828;2023-12-14T01:51:41;6.35;;;3.95;;
80313;SDS011;69628;47.516;18.828;2023-12-14T01:52:42;6.43;;;4.80;;
80313;SDS011;69628;47.516;18.828;2023-12-14T01:53:42;10.07;;;4.57;;
80313;SDS011;69628;47.516;18.828;2023-12-14T01:54:43;10.73;;;4.68;;
80313;SDS011;69628;47.516;18.828;2023-12-14T01:55:43;9.10;;;4.57;;
80313;SDS011;69628;47.516;18.828;2023-12-14T01:56:43;10.45;;;4.82;;
80313;SDS011;69628;47.516;18.828;2023-12-14T01:57:44;10.02;;;5.13;;
80313;SDS011;69628;47.516;18.828;2023-12-14T01:58:44;7.40;;;4.68;;
80313;SDS011;69628;47.516;18.828;2023-12-14T01:59:44;11.63;;;4.93;;
80313;SDS011;69628;47.516;18.828;2023-12-14T02:02:09;9.65;;;4.88;;
80313;SDS011;69628;47.516;18.828;2023-12-14T02:03:10;8.05;;;4.85;;
80313;SDS011;69628;47.516;18.828;2023-12-14T02:04:10;6.25;;;4.03;;
80313;SDS011;69628;47.516;18.828;2023-12-14T02:05:11;7.85;;;4.78;;
80313;SDS011;69628;47.516;18.828;2023-12-14T02:06:12;7.53;;;4.57;;
80313;SDS011;69628;47.516;18.828;2023-12-14T02:07:12;10.10;;;5.75;;
80313;SDS011;69628;47.516;18.828;2023-12-14T02:08:13;12.10;;;5.35;;
80313;SDS011;69628;47.516;18.828;2023-12-14T02:09:13;7.50;;;4.82;;
80313;SDS011;69628;47.516;18.828;2023-12-14T02:10:13;11.32;;;5.85;;
80313;SDS011;69628;47.516;18.828;2023-12-14T02:11:14;9.98;;;4.97;;
80313;SDS011;69628;47.516;18.828;2023-12-14T02:12:14;10.55;;;5.00;;
80313;SDS011;69628;47.516;18.828;2023-12-14T02:13:14;6.60;;;5.47;;
80313;SDS011;69628;47.516;18.828;2023-12-14T02:14:15;11.25;;;4.88;;
80313;SDS011;69628;47.516;18.828;2023-12-14T02:15:15;9.05;;;5.32;;
80313;SDS011;69628;47.516;18.828;2023-12-14T02:16:16;7.97;;;4.63;;
80313;SDS011;69628;47.516;18.828;2023-12-14T02:17:16;9.52;;;5.10;;
80313;SDS011;69628;47.516;18.828;2023-12-14T02:18:16;8.80;;;4.70;;
80313;SDS011;69628;47.516;18.828;2023-12-14T02:19:17;11.20;;;5.72;;
80313;SDS011;69628;47.516;18.828;2023-12-14T02:20:17;7.82;;;5.35;;
80313;SDS011;69628;47.516;18.828;2023-12-14T02:21:17;13.10;;;5.55;;
80313;SDS011;69628;47.516;18.828;2023-12-14T02:22:19;8.10;;;4.55;;
80313;SDS011;69628;47.516;18.828;2023-12-14T02:23:19;9.48;;;5.15;;
80313;SDS011;69628;47.516;18.828;2023-12-14T02:24:19;7.95;;;4.53;;
80313;SDS011;69628;47.516;18.828;2023-12-14T02:25:20;10.43;;;5.13;;
80313;SDS011;69628;47.516;18.828;2023-12-14T02:26:21;7.38;;;4.30;;
80313;SDS011;69628;47.516;18.828;2023-12-14T02:27:22;7.22;;;4.85;;
80313;SDS011;69628;47.516;18.828;2023-12-14T02:28:22;12.48;;;5.60;;
80313;SDS011;69628;47.516;18.828;2023-12-14T02:29:23;8.00;;;4.70;;
80313;SDS011;69628;47.516;18.828;2023-12-14T02:30:23;11.35;;;4.75;;
80313;SDS011;69628;47.516;18.828;2023-12-14T02:31:23;7.70;;;4.93;;
80313;SDS011;69628;47.516;18.828;2023-12-14T02:32:24;14.85;;;7.05;;
80313;SDS011;69628;47.516;18.828;2023-12-14T02:33:24;8.00;;;5.50;;
80313;SDS011;69628;47.516;18.828;2023-12-14T02:34:24;7.75;;;5.38;;
80313;SDS011;69628;47.516;18.828;2023-12-14T02:35:25;8.35;;;4.93;;
80313;SDS011;69628;47.516;18.828;2023-12-14T02:36:25;10.45;;;5.70;;
80313;SDS011;69628;47.516;18.828;2023-12-14T02:37:25;7.22;;;4.32;;
80313;SDS011;69628;47.516;18.828;2023-12-14T02:38:26;10.38;;;4.68;;
80313;SDS011;69628;47.516;18.828;2023-12-14T02:39:26;10.20;;;5.38;;
80313;SDS011;69628;47.516;18.828;2023-12-14T02:40:27;9.50;;;4.70;;
80313;SDS011;69628;47.516;18.828;2023-12-14T02:41:27;9.40;;;5.78;;
80313;SDS011;69628;47.516;18.828;2023-12-14T02:42:27;8.55;;;5.18;;
80313;SDS011;69628;47.516;18.828;2023-12-14T02:43:28;9.30;;;5.00;;
80313;SDS011;69628;47.516;18.828;2023-12-14T02:44:28;10.02;;;5.32;;
80313;SDS011;69628;47.516;18.828;2023-12-14T02:45:28;9.90;;;5.90;;
80313;SDS011;69628;47.516;18.828;2023-12-14T02:46:29;6.47;;;4.72;;
80313;SDS011;69628;47.516;18.828;2023-12-14T02:47:29;6.72;;;4.43;;
80313;SDS011;69628;47.516;18.828;2023-12-14T02:48:29;7.53;;;4.57;;
80313;SDS011;69628;47.516;18.828;2023-12-14T02:49:30;12.48;;;5.47;;
80313;SDS011;69628;47.516;18.828;2023-12-14T02:50:30;17.70;;;7.18;;
80313;SDS011;69628;47.516;18.828;2023-12-14T02:51:31;9.20;;;4.90;;
80313;SDS011;69628;47.516;18.828;2023-12-14T02:52:31;12.80;;;6.25;;
80313;SDS011;69628;47.516;18.828;2023-12-14T02:53:31;13.90;;;5.47;;
80313;SDS011;69628;47.516;18.828;2023-12-14T02:54:32;12.43;;;6.07;;
80313;SDS011;69628;47.516;18.828;2023-12-14T02:55:32;18.65;;;7.93;;
80313;SDS011;69628;47.516;18.828;2023-12-14T02:56:32;18.52;;;9.75;;
80313;SDS011;69628;47.516;18.828;2023-12-14T02:57:33;24.35;;;10.30;;
80313;SDS011;69628;47.516;18.828;2023-12-14T02:58:33;22.58;;;11.43;;
80313;SDS011;69628;47.516;18.828;2023-12-14T02:59:33;19.80;;;11.65;;
80313;SDS011;69628;47.516;18.828;2023-12-14T03:00:34;22.25;;;9.93;;
80313;SDS011;69628;47.516;18.828;2023-12-14T03:01:34;26.55;;;10.98;;
80313;SDS011;69628;47.516;18.828;2023-12-14T03:02:34;19.80;;;9.25;;
80313;SDS011;69628;47.516;18.828;2023-12-14T03:03:37;20.55;;;7.97;;
80313;SDS011;69628;47.516;18.828;2023-12-14T03:04:38;16.80;;;6.90;;
80313;SDS011;69628;47.516;18.828;2023-12-14T03:05:42;18.45;;;7.95;;
80313;SDS011;69628;47.516;18.828;2023-12-14T03:06:42;12.85;;;8.43;;
80313;SDS011;69628;47.516;18.828;2023-12-14T03:07:43;14.55;;;7.80;;
80313;SDS011;69628;47.516;18.828;2023-12-14T03:08:43;15.38;;;7.88;;
80313;SDS011;69628;47.516;18.828;2023-12-14T03:09:43;18.30;;;7.28;;
80313;SDS011;69628;47.516;18.828;2023-12-14T03:10:49;15.90;;;8.18;;
80313;SDS011;69628;47.516;18.828;2023-12-14T03:11:50;19.00;;;8.75;;
80313;SDS011;69628;47.516;18.828;2023-12-14T03:12:50;17.52;;;8.75;;
80313;SDS011;69628;47.516;18.828;2023-12-14T03:13:52;18.80;;;9.07;;
80313;SDS011;69628;47.516;18.828;2023-12-14T03:14:52;23.98;;;8.18;;
80313;SDS011;69628;47.516;18.828;2023-12-14T03:15:52;18.33;;;7.85;;
80313;SDS011;69628;47.516;18.828;2023-12-14T03:16:53;14.90;;;7.13;;
80313;SDS011;69628;47.516;18.828;2023-12-14T03:17:53;12.75;;;7.70;;
80313;SDS011;69628;47.516;18.828;2023-12-14T03:18:53;12.90;;;5.03;;
80313;SDS011;69628;47.516;18.828;2023-12-14T03:19:55;16.10;;;7.30;;
80313;SDS011;69628;47.516;18.828;2023-12-14T03:20:55;11.75;;;6.05;;
80313;SDS011;69628;47.516;18.828;2023-12-14T03:21:55;11.45;;;6.85;;
80313;SDS011;69628;47.516;18.828;2023-12-14T03:22:56;12.48;;;5.70;;
80313;SDS011;69628;47.516;18.828;2023-12-14T03:23:56;14.25;;;5.78;;
80313;SDS011;69628;47.516;18.828;2023-12-14T03:24:56;11.02;;;5.50;;
80313;SDS011;69628;47.516;18.828;2023-12-14T03:26:15;16.45;;;5.50;;
80313;SDS011;69628;47.516;18.828;2023-12-14T03:27:16;13.07;;;6.25;;
80313;SDS011;69628;47.516;18.828;2023-12-14T03:28:16;10.73;;;5.38;;
80313;SDS011;69628;47.516;18.828;2023-12-14T03:29:18;11.25;;;6.03;;
80313;SDS011;69628;47.516;18.828;2023-12-14T03:30:19;11.75;;;6.22;;
80313;SDS011;69628;47.516;18.828;2023-12-14T03:31:19;12.82;;;7.78;;
80313;SDS011;69628;47.516;18.828;2023-12-14T03:32:19;13.88;;;6.60;;
80313;SDS011;69628;47.516;18.828;2023-12-14T03:33:20;12.15;;;6.68;;
80313;SDS011;69628;47.516;18.828;2023-12-14T03:34:22;12.32;;;6.30;;
80313;SDS011;69628;47.516;18.828;2023-12-14T03:35:23;11.30;;;6.10;;
80313;SDS011;69628;47.516;18.828;2023-12-14T03:36:23;15.40;;;7.45;;
80313;SDS011;69628;47.516;18.828;2023-12-14T03:37:26;14.63;;;6.97;;
80313;SDS011;69628;47.516;18.828;2023-12-14T03:38:26;9.82;;;5.88;;
80313;SDS011;69628;47.516;18.828;2023-12-14T03:39:27;11.93;;;5.53;;
80313;SDS011;69628;47.516;18.828;2023-12-14T03:40:27;22.15;;;8.07;;
80313;SDS011;69628;47.516;18.828;2023-12-14T03:41:27;14.35;;;6.82;;
80313;SDS011;69628;47.516;18.828;2023-12-14T03:42:28;14.65;;;7.00;;
80313;SDS011;69628;47.516;18.828;2023-12-14T03:43:28;13.60;;;6.72;;
80313;SDS011;69628;47.516;18.828;2023-12-14T03:44:28;14.05;;;7.90;;
80313;SDS011;69628;47.516;18.828;2023-12-14T03:45:29;11.90;;;6.95;;
80313;SDS011;69628;47.516;18.828;2023-12-14T03:46:30;14.10;;;6.22;;
80313;SDS011;69628;47.516;18.828;2023-12-14T03:47:30;11.02;;;5.43;;
80313;SDS011;69628;47.516;18.828;2023-12-14T03:48:30;11.68;;;5.50;;
80313;SDS011;69628;47.516;18.828;2023-12-14T03:49:31;10.25;;;5.45;;
80313;SDS011;69628;47.516;18.828;2023-12-14T03:50:37;12.68;;;6.82;;
80313;SDS011;69628;47.516;18.828;2023-12-14T03:51:37;16.45;;;7.28;;
80313;SDS011;69628;47.516;18.828;2023-12-14T03:52:38;13.93;;;7.20;;
80313;SDS011;69628;47.516;18.828;2023-12-14T03:53:38;12.70;;;7.32;;
80313;SDS011;69628;47.516;18.828;2023-12-14T03:54:40;11.85;;;6.80;;
80313;SDS011;69628;47.516;18.828;2023-12-14T03:55:40;12.23;;;6.38;;
80313;SDS011;69628;47.516;18.828;2023-12-14T03:56:40;13.60;;;7.03;;
80313;SDS011;69628;47.516;18.828;2023-12-14T03:57:41;15.77;;;6.95;;
80313;SDS011;69628;47.516;18.828;2023-12-14T03:58:42;14.52;;;8.82;;
80313;SDS011;69628;47.516;18.828;2023-12-14T03:59:42;13.82;;;6.65;;
80313;SDS011;69628;47.516;18.828;2023-12-14T04:00:42;14.93;;;6.85;;
80313;SDS011;69628;47.516;18.828;2023-12-14T04:01:43;10.80;;;6.13;;
80313;SDS011;69628;47.516;18.828;2023-12-14T04:02:43;14.98;;;7.53;;
80313;SDS011;69628;47.516;18.828;2023-12-14T04:03:44;10.98;;;5.88;;
80313;SDS011;69628;47.516;18.828;2023-12-14T04:04:44;13.60;;;6.10;;
80313;SDS011;69628;47.516;18.828;2023-12-14T04:05:47;12.48;;;5.85;;
80313;SDS011;69628;47.516;18.828;2023-12-14T04:06:47;14.23;;;7.88;;
80313;SDS011;69628;47.516;18.828;2023-12-14T04:07:47;14.93;;;7.43;;
80313;SDS011;69628;47.516;18.828;2023-12-14T04:08:48;11.35;;;6.70;;
80313;SDS011;69628;47.516;18.828;2023-12-14T04:09:48;14.95;;;7.15;;
80313;SDS011;69628;47.516;18.828;2023-12-14T04:10:49;17.48;;;8.80;;
80313;SDS011;69628;47.516;18.828;2023-12-14T04:11:49;12.23;;;6.05;;
80313;SDS011;69628;47.516;18.828;2023-12-14T04:12:49;14.13;;;7.25;;
80313;SDS011;69628;47.516;18.828;2023-12-14T04:13:50;13.90;;;7.53;;
80313;SDS011;69628;47.516;18.828;2023-12-14T04:14:53;13.52;;;6.55;;
80313;SDS011;69628;47.516;18.828;2023-12-14T04:15:53;16.17;;;7.38;;
80313;SDS011;69628;47.516;18.828;2023-12-14T04:16:54;16.10;;;8.30;;
80313;SDS011;69628;47.516;18.828;2023-12-14T04:17:54;18.48;;;8.43;;
80313;SDS011;69628;47.516;18.828;2023-12-14T04:18:55;17.75;;;7.38;;
80313;SDS011;69628;47.516;18.828;2023-12-14T04:19:56;17.80;;;9.32;;
80313;SDS011;69628;47.516;18.828;2023-12-14T04:20:56;11.95;;;6.85;;
80313;SDS011;69628;47.516;18.828;2023-12-14T04:21:57;14.90;;;7.50;;
80313;SDS011;69628;47.516;18.828;2023-12-14T04:22:57;14.48;;;7.35;;
80313;SDS011;69628;47.516;18.828;2023-12-14T04:23:57;20.17;;;9.30;;
80313;SDS011;69628;47.516;18.828;2023-12-14T04:24:58;24.23;;;10.60;;
80313;SDS011;69628;47.516;18.828;2023-12-14T04:25:58;27.63;;;10.95;;
80313;SDS011;69628;47.516;18.828;2023-12-14T04:26:58;26.17;;;11.55;;
80313;SDS011;69628;47.516;18.828;2023-12-14T04:27:59;24.25;;;10.15;;
80313;SDS011;69628;47.516;18.828;2023-12-14T04:29:00;20.25;;;10.02;;
80313;SDS011;69628;47.516;18.828;2023-12-14T04:30:00;28.95;;;9.95;;
80313;SDS011;69628;47.516;18.828;2023-12-14T04:31:00;26.98;;;9.50;;
80313;SDS011;69628;47.516;18.828;2023-12-14T04:32:01;17.83;;;9.38;;
80313;SDS011;69628;47.516;18.828;2023-12-14T04:33:01;26.08;;;9.93;;
80313;SDS011;69628;47.516;18.828;2023-12-14T04:34:01;22.35;;;8.88;;
80313;SDS011;69628;47.516;18.828;2023-12-14T04:35:02;17.42;;;8.75;;
80313;SDS011;69628;47.516;18.828;2023-12-14T04:36:03;18.92;;;7.70;;
80313;SDS011;69628;47.516;18.828;2023-12-14T04:37:03;22.10;;;8.90;;
80313;SDS011;69628;47.516;18.828;2023-12-14T04:38:04;17.88;;;8.85;;
80313;SDS011;69628;47.516;18.828;2023-12-14T04:39:04;14.50;;;7.43;;
80313;SDS011;69628;47.516;18.828;2023-12-14T04:40:05;22.83;;;8.98;;
80313;SDS011;69628;47.516;18.828;2023-12-14T04:41:06;20.25;;;9.63;;
80313;SDS011;69628;47.516;18.828;2023-12-14T04:42:06;20.05;;;8.07;;
80313;SDS011;69628;47.516;18.828;2023-12-14T04:43:06;19.85;;;7.95;;
80313;SDS011;69628;47.516;18.828;2023-12-14T04:44:07;15.75;;;7.55;;
80313;SDS011;69628;47.516;18.828;2023-12-14T04:45:07;23.48;;;10.48;;
80313;SDS011;69628;47.516;18.828;2023-12-14T04:46:11;17.70;;;8.77;;
80313;SDS011;69628;47.516;18.828;2023-12-14T04:47:11;24.10;;;8.13;;
80313;SDS011;69628;47.516;18.828;2023-12-14T04:48:12;14.30;;;6.80;;
80313;SDS011;69628;47.516;18.828;2023-12-14T04:49:12;11.60;;;6.05;;
80313;SDS011;69628;47.516;18.828;2023-12-14T04:50:13;16.90;;;7.43;;
80313;SDS011;69628;47.516;18.828;2023-12-14T04:51:13;15.82;;;7.60;;
80313;SDS011;69628;47.516;18.828;2023-12-14T04:52:13;20.85;;;9.00;;
80313;SDS011;69628;47.516;18.828;2023-12-14T04:53:14;18.58;;;7.50;;
80313;SDS011;69628;47.516;18.828;2023-12-14T04:54:14;17.15;;;7.50;;
80313;SDS011;69628;47.516;18.828;2023-12-14T04:55:15;14.18;;;7.28;;
80313;SDS011;69628;47.516;18.828;2023-12-14T04:56:15;13.73;;;8.15;;
80313;SDS011;69628;47.516;18.828;2023-12-14T04:57:15;11.27;;;6.90;;
80313;SDS011;69628;47.516;18.828;2023-12-14T04:58:16;19.80;;;7.28;;
80313;SDS011;69628;47.516;18.828;2023-12-14T04:59:16;12.90;;;7.65;;
80313;SDS011;69628;47.516;18.828;2023-12-14T05:00:16;15.98;;;7.15;;
80313;SDS011;69628;47.516;18.828;2023-12-14T05:01:17;15.25;;;7.10;;
80313;SDS011;69628;47.516;18.828;2023-12-14T05:02:17;13.25;;;6.65;;
80313;SDS011;69628;47.516;18.828;2023-12-14T05:03:18;19.48;;;8.52;;
80313;SDS011;69628;47.516;18.828;2023-12-14T05:04:18;13.05;;;7.45;;
80313;SDS011;69628;47.516;18.828;2023-12-14T05:05:18;18.13;;;8.48;;
80313;SDS011;69628;47.516;18.828;2023-12-14T05:06:19;23.95;;;9.82;;
80313;SDS011;69628;47.516;18.828;2023-12-14T05:07:19;18.67;;;8.63;;
80313;SDS011;69628;47.516;18.828;2023-12-14T05:08:20;14.18;;;7.32;;
80313;SDS011;69628;47.516;18.828;2023-12-14T05:09:20;13.07;;;7.22;;
80313;SDS011;69628;47.516;18.828;2023-12-14T05:10:20;13.07;;;6.97;;
80313;SDS011;69628;47.516;18.828;2023-12-14T05:11:21;20.30;;;8.68;;
80313;SDS011;69628;47.516;18.828;2023-12-14T05:12:21;16.73;;;7.40;;
80313;SDS011;69628;47.516;18.828;2023-12-14T05:13:21;18.20;;;7.65;;
80313;SDS011;69628;47.516;18.828;2023-12-14T05:14:22;19.13;;;9.38;;
80313;SDS011;69628;47.516;18.828;2023-12-14T05:15:23;13.63;;;6.65;;
80313;SDS011;69628;47.516;18.828;2023-12-14T05:16:23;20.02;;;7.95;;
80313;SDS011;69628;47.516;18.828;2023-12-14T05:17:27;14.88;;;7.60;;
80313;SDS011;69628;47.516;18.828;2023-12-14T05:18:27;19.73;;;9.18;;
80313;SDS011;69628;47.516;18.828;2023-12-14T05:19:28;20.35;;;9.57;;
80313;SDS011;69628;47.516;18.828;2023-12-14T05:20:28;14.32;;;7.70;;
80313;SDS011;69628;47.516;18.828;2023-12-14T05:21:29;17.48;;;8.40;;
80313;SDS011;69628;47.516;18.828;2023-12-14T05:22:29;18.00;;;8.30;;
80313;SDS011;69628;47.516;18.828;2023-12-14T05:23:30;15.18;;;8.13;;
80313;SDS011;69628;47.516;18.828;2023-12-14T05:24:30;14.57;;;6.97;;
80313;SDS011;69628;47.516;18.828;2023-12-14T05:25:30;15.80;;;7.88;;
80313;SDS011;69628;47.516;18.828;2023-12-14T05:26:31;18.80;;;7.55;;
80313;SDS011;69628;47.516;18.828;2023-12-14T05:27:31;14.35;;;7.38;;
80313;SDS011;69628;47.516;18.828;2023-12-14T05:28:31;14.18;;;7.13;;
80313;SDS011;69628;47.516;18.828;2023-12-14T05:29:32;16.52;;;9.75;;
80313;SDS011;69628;47.516;18.828;2023-12-14T05:30:33;19.98;;;8.38;;
80313;SDS011;69628;47.516;18.828;2023-12-14T05:31:33;17.02;;;8.88;;
80313;SDS011;69628;47.516;18.828;2023-12-14T05:32:34;15.57;;;8.00;;
80313;SDS011;69628;47.516;18.828;2023-12-14T05:33:38;19.05;;;9.65;;
80313;SDS011;69628;47.516;18.828;2023-12-14T05:34:39;22.73;;;8.25;;
80313;SDS011;69628;47.516;18.828;2023-12-14T05:35:39;21.20;;;9.15;;
80313;SDS011;69628;47.516;18.828;2023-12-14T05:36:39;22.67;;;9.55;;
80313;SDS011;69628;47.516;18.828;2023-12-14T05:37:40;24.67;;;11.13;;
80313;SDS011;69628;47.516;18.828;2023-12-14T05:38:41;23.10;;;9.15;;
80313;SDS011;69628;47.516;18.828;2023-12-14T05:39:42;18.38;;;9.98;;
80313;SDS011;69628;47.516;18.828;2023-12-14T05:40:43;25.80;;;10.70;;
80313;SDS011;69628;47.516;18.828;2023-12-14T05:41:43;18.05;;;9.13;;
80313;SDS011;69628;47.516;18.828;2023-12-14T05:42:44;16.65;;;9.27;;
80313;SDS011;69628;47.516;18.828;2023-12-14T05:43:44;23.60;;;9.32;;
80313;SDS011;69628;47.516;18.828;2023-12-14T05:44:45;16.13;;;7.65;;
80313;SDS011;69628;47.516;18.828;2023-12-14T05:45:45;19.33;;;8.90;;
80313;SDS011;69628;47.516;18.828;2023-12-14T05:46:45;19.30;;;10.07;;
80313;SDS011;69628;47.516;18.828;2023-12-14T05:47:46;15.20;;;8.57;;
80313;SDS011;69628;47.516;18.828;2023-12-14T05:48:46;17.15;;;8.05;;
80313;SDS011;69628;47.516;18.828;2023-12-14T05:49:47;18.25;;;9.80;;
80313;SDS011;69628;47.516;18.828;2023-12-14T05:50:47;17.90;;;8.85;;
80313;SDS011;69628;47.516;18.828;2023-12-14T05:51:47;20.50;;;8.32;;
80313;SDS011;69628;47.516;18.828;2023-12-14T05:52:48;14.00;;;8.55;;
80313;SDS011;69628;47.516;18.828;2023-12-14T05:53:48;14.40;;;6.88;;
80313;SDS011;69628;47.516;18.828;2023-12-14T05:54:49;14.60;;;8.02;;
80313;SDS011;69628;47.516;18.828;2023-12-14T05:55:49;14.38;;;6.80;;
80313;SDS011;69628;47.516;18.828;2023-12-14T05:56:50;21.85;;;9.10;;
80313;SDS011;69628;47.516;18.828;2023-12-14T05:57:50;21.25;;;9.07;;